sensor_id;sensor_type;location;lat;lon;timestamp;P1;durP1;ratioP1;P2;durP2;ratioP2
56999;SDS011;42891;50.006;21.964;2023-10-19T00:01:01;27.92;;;18.85;;
56999;SDS011;42891;50.006;21.964;2023-10-19T00:05:04;31.15;;;18.73;;
56999;SDS011;42891;50.006;21.964;2023-10-19T00:09:09;31.15;;;19.55;;
56999;SDS011;42891;50.006;21.964;2023-10-19T00:13:11;29.02;;;17.38;;
56999;SDS011;42891;50.006;21.964;2023-10-19T00:17:12;33.20;;;19.05;;
56999;SDS011;42891;50.006;21.964;2023-10-19T00:21:15;28.75;;;17.20;;
56999;SDS011;42891;50.006;21.964;2023-10-19T00:25:20;29.70;;;17.35;;
56999;SDS011;42891;50.006;21.964;2023-10-19T00:29:23;30.38;;;17.83;;
56999;SDS011;42891;50.006;21.964;2023-10-19T00:33:40;27.25;;;18.65;;
56999;SDS011;42891;50.006;21.964;2023-10-19T00:37:40;28.17;;;16.80;;
56999;SDS011;42891;50.006;21.964;2023-10-19T00:41:42;25.40;;;16.65;;
56999;SDS011;42891;50.006;21.964;2023-10-19T00:45:45;27.77;;;15.90;;
56999;SDS011;42891;50.006;21.964;2023-10-19T00:49:47;23.85;;;16.15;;
56999;SDS011;42891;50.006;21.964;2023-10-19T00:53:48;27.60;;;16.48;;
56999;SDS011;42891;50.006;21.964;2023-10-19T00:57:49;26.88;;;16.70;;
56999;SDS011;42891;50.006;21.964;2023-10-19T01:01:51;24.52;;;15.65;;
56999;SDS011;42891;50.006;21.964;2023-10-19T01:05:58;26.73;;;16.90;;
56999;SDS011;42891;50.006;21.964;2023-10-19T01:10:02;26.98;;;16.75;;
56999;SDS011;42891;50.006;21.964;2023-10-19T01:14:18;26.65;;;17.20;;
56999;SDS011;42891;50.006;21.964;2023-10-19T01:18:22;29.92;;;18.00;;
56999;SDS011;42891;50.006;21.964;2023-10-19T01:22:22;29.00;;;16.65;;
56999;SDS011;42891;50.006;21.964;2023-10-19T01:26:26;27.50;;;16.55;;
56999;SDS011;42891;50.006;21.964;2023-10-19T01:30:27;26.63;;;16.48;;
56999;SDS011;42891;50.006;21.964;2023-10-19T01:34:27;26.10;;;16.05;;
56999;SDS011;42891;50.006;21.964;2023-10-19T01:38:28;25.90;;;15.80;;
56999;SDS011;42891;50.006;21.964;2023-10-19T01:42:31;26.55;;;15.18;;
56999;SDS011;42891;50.006;21.964;2023-10-19T01:46:32;31.95;;;18.45;;
56999;SDS011;42891;50.006;21.964;2023-10-19T01:50:34;32.95;;;19.48;;
56999;SDS011;42891;50.006;21.964;2023-10-19T01:54:39;36.40;;;17.87;;
56999;SDS011;42891;50.006;21.964;2023-10-19T01:58:39;28.35;;;15.98;;
56999;SDS011;42891;50.006;21.964;2023-10-19T02:02:40;22.60;;;14.63;;
56999;SDS011;42891;50.006;21.964;2023-10-19T02:06:42;23.35;;;14.85;;
56999;SDS011;42891;50.006;21.964;2023-10-19T02:10:46;23.52;;;15.07;;
56999;SDS011;42891;50.006;21.964;2023-10-19T02:14:47;20.05;;;13.15;;
56999;SDS011;42891;50.006;21.964;2023-10-19T02:18:47;17.98;;;11.35;;
56999;SDS011;42891;50.006;21.964;2023-10-19T02:22:49;17.40;;;11.38;;
56999;SDS011;42891;50.006;21.964;2023-10-19T02:26:52;21.33;;;12.70;;
56999;SDS011;42891;50.006;21.964;2023-10-19T02:30:55;20.17;;;12.40;;
56999;SDS011;42891;50.006;21.964;2023-10-19T02:34:56;19.80;;;12.60;;
56999;SDS011;42891;50.006;21.964;2023-10-19T02:38:57;19.10;;;11.90;;
56999;SDS011;42891;50.006;21.964;2023-10-19T02:43:02;18.85;;;11.75;;
56999;SDS011;42891;50.006;21.964;2023-10-19T02:47:03;19.20;;;11.45;;
56999;SDS011;42891;50.006;21.964;2023-10-19T02:51:08;18.63;;;11.93;;
56999;SDS011;42891;50.006;21.964;2023-10-19T02:55:11;19.77;;;11.93;;
56999;SDS011;42891;50.006;21.964;2023-10-19T02:59:11;18.45;;;12.05;;
56999;SDS011;42891;50.006;21.964;2023-10-19T03:03:11;15.63;;;10.63;;
56999;SDS011;42891;50.006;21.964;2023-10-19T03:07:12;22.00;;;12.38;;
56999;SDS011;42891;50.006;21.964;2023-10-19T03:11:13;20.60;;;12.65;;
56999;SDS011;42891;50.006;21.964;2023-10-19T03:15:14;26.10;;;14.43;;
56999;SDS011;42891;50.006;21.964;2023-10-19T03:19:15;25.83;;;16.10;;
56999;SDS011;42891;50.006;21.964;2023-10-19T03:23:15;23.27;;;14.32;;
56999;SDS011;42891;50.006;21.964;2023-10-19T03:27:16;22.52;;;13.75;;
56999;SDS011;42891;50.006;21.964;2023-10-19T03:31:22;25.10;;;14.00;;
56999;SDS011;42891;50.006;21.964;2023-10-19T03:35:25;22.73;;;13.20;;
56999;SDS011;42891;50.006;21.964;2023-10-19T03:39:26;22.70;;;14.05;;
56999;SDS011;42891;50.006;21.964;2023-10-19T03:43:27;23.45;;;14.48;;
56999;SDS011;42891;50.006;21.964;2023-10-19T03:47:28;27.33;;;14.32;;
56999;SDS011;42891;50.006;21.964;2023-10-19T03:51:38;26.67;;;14.68;;
56999;SDS011;42891;50.006;21.964;2023-10-19T03:55:58;27.95;;;15.23;;
56999;SDS011;42891;50.006;21.964;2023-10-19T03:59:58;35.03;;;18.75;;
56999;SDS011;42891;50.006;21.964;2023-10-19T04:03:59;43.78;;;24.45;;
56999;SDS011;42891;50.006;21.964;2023-10-19T04:08:01;53.95;;;27.80;;
56999;SDS011;42891;50.006;21.964;2023-10-19T04:12:06;65.32;;;34.67;;
56999;SDS011;42891;50.006;21.964;2023-10-19T04:16:07;66.90;;;37.63;;
56999;SDS011;42891;50.006;21.964;2023-10-19T04:20:10;70.95;;;38.78;;
56999;SDS011;42891;50.006;21.964;2023-10-19T04:24:34;63.38;;;35.00;;
56999;SDS011;42891;50.006;21.964;2023-10-19T04:28:35;62.88;;;34.20;;
56999;SDS011;42891;50.006;21.964;2023-10-19T04:32:44;63.88;;;37.30;;
56999;SDS011;42891;50.006;21.964;2023-10-19T04:36:46;72.78;;;40.35;;
56999;SDS011;42891;50.006;21.964;2023-10-19T04:40:47;65.90;;;35.92;;
56999;SDS011;42891;50.006;21.964;2023-10-19T04:44:47;69.57;;;39.38;;
56999;SDS011;42891;50.006;21.964;2023-10-19T04:48:48;68.28;;;35.05;;
56999;SDS011;42891;50.006;21.964;2023-10-19T04:52:49;64.00;;;35.78;;
56999;SDS011;42891;50.006;21.964;2023-10-19T04:56:49;63.38;;;33.17;;
56999;SDS011;42891;50.006;21.964;2023-10-19T05:00:52;63.33;;;34.13;;
56999;SDS011;42891;50.006;21.964;2023-10-19T05:04:53;85.25;;;46.20;;
56999;SDS011;42891;50.006;21.964;2023-10-19T05:08:53;76.35;;;42.17;;
56999;SDS011;42891;50.006;21.964;2023-10-19T05:12:54;71.32;;;40.75;;
56999;SDS011;42891;50.006;21.964;2023-10-19T05:16:55;71.50;;;40.92;;
56999;SDS011;42891;50.006;21.964;2023-10-19T05:20:55;130.27;;;57.38;;
56999;SDS011;42891;50.006;21.964;2023-10-19T05:24:57;145.50;;;60.60;;
56999;SDS011;42891;50.006;21.964;2023-10-19T05:28:57;119.75;;;52.47;;
56999;SDS011;42891;50.006;21.964;2023-10-19T05:32:57;113.07;;;51.55;;
56999;SDS011;42891;50.006;21.964;2023-10-19T05:36:58;107.07;;;48.50;;
56999;SDS011;42891;50.006;21.964;2023-10-19T05:41:01;98.22;;;48.95;;
56999;SDS011;42891;50.006;21.964;2023-10-19T05:45:03;88.78;;;41.45;;
56999;SDS011;42891;50.006;21.964;2023-10-19T05:49:05;85.25;;;45.10;;
56999;SDS011;42891;50.006;21.964;2023-10-19T05:53:06;83.10;;;41.30;;
56999;SDS011;42891;50.006;21.964;2023-10-19T05:57:06;75.32;;;36.33;;
56999;SDS011;42891;50.006;21.964;2023-10-19T06:01:08;69.50;;;34.90;;
56999;SDS011;42891;50.006;21.964;2023-10-19T06:05:09;69.05;;;37.58;;
56999;SDS011;42891;50.006;21.964;2023-10-19T06:09:09;63.75;;;33.80;;
56999;SDS011;42891;50.006;21.964;2023-10-19T06:13:10;60.88;;;31.70;;
56999;SDS011;42891;50.006;21.964;2023-10-19T06:17:10;57.55;;;30.67;;
56999;SDS011;42891;50.006;21.964;2023-10-19T06:21:10;61.70;;;30.85;;
56999;SDS011;42891;50.006;21.964;2023-10-19T06:25:12;64.25;;;33.55;;
56999;SDS011;42891;50.006;21.964;2023-10-19T06:29:14;59.08;;;31.85;;
56999;SDS011;42891;50.006;21.964;2023-10-19T06:33:15;55.22;;;30.52;;
56999;SDS011;42891;50.006;21.964;2023-10-19T06:37:15;56.05;;;31.52;;
56999;SDS011;42891;50.006;21.964;2023-10-19T06:41:16;51.95;;;29.33;;
56999;SDS011;42891;50.006;21.964;2023-10-19T06:45:18;47.80;;;28.98;;
56999;SDS011;42891;50.006;21.964;2023-10-19T06:49:19;47.08;;;26.92;;
56999;SDS011;42891;50.006;21.964;2023-10-19T06:53:19;42.13;;;25.52;;
56999;SDS011;42891;50.006;21.964;2023-10-19T06:57:19;39.03;;;22.42;;
56999;SDS011;42891;50.006;21.964;2023-10-19T07:01:20;39.30;;;20.30;;
56999;SDS011;42891;50.006;21.964;2023-10-19T07:05:25;31.15;;;19.15;;
56999;SDS011;42891;50.006;21.964;2023-10-19T07:09:29;33.72;;;20.98;;
56999;SDS011;42891;50.006;21.964;2023-10-19T07:13:30;34.58;;;20.35;;
56999;SDS011;42891;50.006;21.964;2023-10-19T07:17:35;29.42;;;18.63;;
56999;SDS011;42891;50.006;21.964;2023-10-19T07:21:37;32.37;;;18.23;;
56999;SDS011;42891;50.006;21.964;2023-10-19T07:25:41;25.15;;;15.50;;
56999;SDS011;42891;50.006;21.964;2023-10-19T07:29:45;29.15;;;16.30;;
56999;SDS011;42891;50.006;21.964;2023-10-19T07:33:45;34.03;;;21.48;;
56999;SDS011;42891;50.006;21.964;2023-10-19T07:37:46;30.30;;;20.75;;
56999;SDS011;42891;50.006;21.964;2023-10-19T07:41:49;24.23;;;14.98;;
56999;SDS011;42891;50.006;21.964;2023-10-19T07:45:50;22.38;;;15.10;;
56999;SDS011;42891;50.006;21.964;2023-10-19T07:49:52;24.27;;;14.25;;
56999;SDS011;42891;50.006;21.964;2023-10-19T07:53:54;26.50;;;14.68;;
56999;SDS011;42891;50.006;21.964;2023-10-19T07:57:54;25.60;;;15.80;;
56999;SDS011;42891;50.006;21.964;2023-10-19T08:01:55;28.40;;;17.10;;
56999;SDS011;42891;50.006;21.964;2023-10-19T08:05:55;30.45;;;17.23;;
56999;SDS011;42891;50.006;21.964;2023-10-19T08:09:55;20.65;;;13.40;;
56999;SDS011;42891;50.006;21.964;2023-10-19T08:13:58;19.90;;;12.35;;
56999;SDS011;42891;50.006;21.964;2023-10-19T08:18:00;19.05;;;11.68;;
56999;SDS011;42891;50.006;21.964;2023-10-19T08:22:00;19.98;;;11.98;;
56999;SDS011;42891;50.006;21.964;2023-10-19T08:26:02;14.32;;;8.43;;
56999;SDS011;42891;50.006;21.964;2023-10-19T08:30:06;10.65;;;7.32;;
56999;SDS011;42891;50.006;21.964;2023-10-19T08:34:08;10.15;;;6.93;;
56999;SDS011;42891;50.006;21.964;2023-10-19T08:38:12;11.68;;;7.00;;
56999;SDS011;42891;50.006;21.964;2023-10-19T08:42:12;13.20;;;6.90;;
56999;SDS011;42891;50.006;21.964;2023-10-19T08:46:13;7.75;;;6.10;;
56999;SDS011;42891;50.006;21.964;2023-10-19T08:50:14;12.63;;;7.35;;
56999;SDS011;42891;50.006;21.964;2023-10-19T08:54:15;9.38;;;6.85;;
56999;SDS011;42891;50.006;21.964;2023-10-19T08:58:15;9.13;;;6.15;;
56999;SDS011;42891;50.006;21.964;2023-10-19T09:02:16;10.00;;;6.05;;
56999;SDS011;42891;50.006;21.964;2023-10-19T09:06:16;9.93;;;6.50;;
56999;SDS011;42891;50.006;21.964;2023-10-19T09:10:17;8.52;;;6.20;;
56999;SDS011;42891;50.006;21.964;2023-10-19T09:14:30;9.13;;;6.53;;
56999;SDS011;42891;50.006;21.964;2023-10-19T09:18:33;10.27;;;6.22;;
56999;SDS011;42891;50.006;21.964;2023-10-19T09:22:35;12.10;;;6.03;;
56999;SDS011;42891;50.006;21.964;2023-10-19T09:26:36;9.60;;;6.53;;
56999;SDS011;42891;50.006;21.964;2023-10-19T09:30:37;11.38;;;6.50;;
56999;SDS011;42891;50.006;21.964;2023-10-19T09:34:41;11.88;;;5.68;;
56999;SDS011;42891;50.006;21.964;2023-10-19T09:38:48;9.32;;;6.10;;
56999;SDS011;42891;50.006;21.964;2023-10-19T09:42:52;12.35;;;6.18;;
56999;SDS011;42891;50.006;21.964;2023-10-19T09:46:56;11.25;;;6.45;;
56999;SDS011;42891;50.006;21.964;2023-10-19T09:50:58;9.63;;;6.30;;
56999;SDS011;42891;50.006;21.964;2023-10-19T09:59:11;8.00;;;5.90;;
56999;SDS011;42891;50.006;21.964;2023-10-19T10:03:44;8.98;;;6.18;;
56999;SDS011;42891;50.006;21.964;2023-10-19T10:07:47;8.68;;;6.07;;
56999;SDS011;42891;50.006;21.964;2023-10-19T10:11:51;8.75;;;6.25;;
56999;SDS011;42891;50.006;21.964;2023-10-19T10:15:53;9.70;;;6.43;;
56999;SDS011;42891;50.006;21.964;2023-10-19T10:19:55;9.82;;;5.88;;
56999;SDS011;42891;50.006;21.964;2023-10-19T10:24:18;8.07;;;6.05;;
56999;SDS011;42891;50.006;21.964;2023-10-19T10:28:20;14.45;;;6.65;;
56999;SDS011;42891;50.006;21.964;2023-10-19T10:32:42;9.65;;;6.75;;
56999;SDS011;42891;50.006;21.964;2023-10-19T10:37:02;9.80;;;6.22;;
56999;SDS011;42891;50.006;21.964;2023-10-19T10:41:03;9.50;;;5.28;;
56999;SDS011;42891;50.006;21.964;2023-10-19T10:45:04;7.90;;;5.28;;
56999;SDS011;42891;50.006;21.964;2023-10-19T10:49:08;10.43;;;5.43;;
56999;SDS011;42891;50.006;21.964;2023-10-19T10:53:12;6.88;;;5.20;;
56999;SDS011;42891;50.006;21.964;2023-10-19T10:57:14;6.45;;;4.93;;
56999;SDS011;42891;50.006;21.964;2023-10-19T11:01:29;7.35;;;4.63;;
56999;SDS011;42891;50.006;21.964;2023-10-19T11:05:36;6.38;;;4.80;;
56999;SDS011;42891;50.006;21.964;2023-10-19T11:09:43;7.15;;;5.05;;
56999;SDS011;42891;50.006;21.964;2023-10-19T11:13:44;5.40;;;4.32;;
56999;SDS011;42891;50.006;21.964;2023-10-19T11:17:45;8.53;;;4.57;;
56999;SDS011;42891;50.006;21.964;2023-10-19T11:21:53;8.05;;;4.50;;
56999;SDS011;42891;50.006;21.964;2023-10-19T11:25:58;7.03;;;4.43;;
56999;SDS011;42891;50.006;21.964;2023-10-19T11:29:58;5.70;;;4.50;;
56999;SDS011;42891;50.006;21.964;2023-10-19T11:34:05;6.47;;;4.72;;
56999;SDS011;42891;50.006;21.964;2023-10-19T11:38:06;5.15;;;4.30;;
56999;SDS011;42891;50.006;21.964;2023-10-19T11:42:06;6.00;;;4.32;;
56999;SDS011;42891;50.006;21.964;2023-10-19T11:46:06;5.18;;;4.15;;
56999;SDS011;42891;50.006;21.964;2023-10-19T11:50:07;4.88;;;4.10;;
56999;SDS011;42891;50.006;21.964;2023-10-19T11:54:07;5.55;;;4.28;;
56999;SDS011;42891;50.006;21.964;2023-10-19T11:58:08;5.80;;;4.47;;
56999;SDS011;42891;50.006;21.964;2023-10-19T12:06:18;6.18;;;4.65;;
56999;SDS011;42891;50.006;21.964;2023-10-19T12:10:19;5.82;;;4.07;;
56999;SDS011;42891;50.006;21.964;2023-10-19T12:14:24;6.97;;;4.30;;
56999;SDS011;42891;50.006;21.964;2023-10-19T12:18:24;4.70;;;4.00;;
56999;SDS011;42891;50.006;21.964;2023-10-19T12:22:28;4.20;;;3.80;;
56999;SDS011;42891;50.006;21.964;2023-10-19T12:26:32;4.40;;;3.65;;
56999;SDS011;42891;50.006;21.964;2023-10-19T12:30:32;5.03;;;3.80;;
56999;SDS011;42891;50.006;21.964;2023-10-19T12:34:36;4.20;;;3.67;;
56999;SDS011;42891;50.006;21.964;2023-10-19T12:38:37;7.30;;;4.20;;
56999;SDS011;42891;50.006;21.964;2023-10-19T12:42:38;4.63;;;4.03;;
56999;SDS011;42891;50.006;21.964;2023-10-19T12:46:38;4.57;;;3.90;;
56999;SDS011;42891;50.006;21.964;2023-10-19T12:50:38;4.47;;;3.75;;
56999;SDS011;42891;50.006;21.964;2023-10-19T12:54:40;5.03;;;3.80;;
56999;SDS011;42891;50.006;21.964;2023-10-19T12:58:43;5.05;;;3.95;;
56999;SDS011;42891;50.006;21.964;2023-10-19T13:02:44;5.32;;;3.83;;
56999;SDS011;42891;50.006;21.964;2023-10-19T13:06:44;5.27;;;4.40;;
56999;SDS011;42891;50.006;21.964;2023-10-19T13:10:47;5.53;;;4.13;;
56999;SDS011;42891;50.006;21.964;2023-10-19T13:14:48;4.85;;;3.80;;
56999;SDS011;42891;50.006;21.964;2023-10-19T13:18:49;6.20;;;3.47;;
56999;SDS011;42891;50.006;21.964;2023-10-19T13:22:49;4.65;;;3.97;;
56999;SDS011;42891;50.006;21.964;2023-10-19T13:26:50;4.60;;;3.47;;
56999;SDS011;42891;50.006;21.964;2023-10-19T13:30:51;5.13;;;4.03;;
56999;SDS011;42891;50.006;21.964;2023-10-19T13:34:55;4.47;;;3.33;;
56999;SDS011;42891;50.006;21.964;2023-10-19T13:38:55;4.32;;;3.53;;
56999;SDS011;42891;50.006;21.964;2023-10-19T13:42:56;3.60;;;3.30;;
56999;SDS011;42891;50.006;21.964;2023-10-19T13:46:58;5.20;;;3.97;;
56999;SDS011;42891;50.006;21.964;2023-10-19T13:50:59;4.93;;;3.72;;
56999;SDS011;42891;50.006;21.964;2023-10-19T13:55:00;4.22;;;3.60;;
56999;SDS011;42891;50.006;21.964;2023-10-19T13:59:01;5.00;;;4.10;;
56999;SDS011;42891;50.006;21.964;2023-10-19T14:03:02;19.33;;;10.00;;
56999;SDS011;42891;50.006;21.964;2023-10-19T14:07:04;7.03;;;6.32;;
56999;SDS011;42891;50.006;21.964;2023-10-19T14:11:04;5.90;;;4.78;;
56999;SDS011;42891;50.006;21.964;2023-10-19T14:15:06;6.15;;;4.93;;
56999;SDS011;42891;50.006;21.964;2023-10-19T14:19:08;7.20;;;4.35;;
56999;SDS011;42891;50.006;21.964;2023-10-19T14:23:09;7.53;;;5.20;;
56999;SDS011;42891;50.006;21.964;2023-10-19T14:27:10;5.47;;;4.25;;
56999;SDS011;42891;50.006;21.964;2023-10-19T14:31:11;3.95;;;3.55;;
56999;SDS011;42891;50.006;21.964;2023-10-19T14:35:12;4.88;;;3.65;;
56999;SDS011;42891;50.006;21.964;2023-10-19T14:39:14;3.80;;;3.47;;
56999;SDS011;42891;50.006;21.964;2023-10-19T14:43:17;4.15;;;3.75;;
56999;SDS011;42891;50.006;21.964;2023-10-19T14:47:18;3.88;;;3.47;;
56999;SDS011;42891;50.006;21.964;2023-10-19T14:51:18;5.18;;;4.35;;
56999;SDS011;42891;50.006;21.964;2023-10-19T14:55:18;7.03;;;5.03;;
56999;SDS011;42891;50.006;21.964;2023-10-19T14:59:19;6.63;;;5.50;;
56999;SDS011;42891;50.006;21.964;2023-10-19T15:03:19;11.87;;;8.20;;
56999;SDS011;42891;50.006;21.964;2023-10-19T15:07:20;7.43;;;5.55;;
56999;SDS011;42891;50.006;21.964;2023-10-19T15:11:20;7.72;;;5.40;;
56999;SDS011;42891;50.006;21.964;2023-10-19T15:15:22;8.70;;;7.20;;
56999;SDS011;42891;50.006;21.964;2023-10-19T15:19:22;7.68;;;5.88;;
56999;SDS011;42891;50.006;21.964;2023-10-19T15:23:24;8.88;;;6.10;;
56999;SDS011;42891;50.006;21.964;2023-10-19T15:27:25;8.75;;;6.25;;
56999;SDS011;42891;50.006;21.964;2023-10-19T15:31:27;8.23;;;6.05;;
56999;SDS011;42891;50.006;21.964;2023-10-19T15:35:27;9.63;;;7.00;;
56999;SDS011;42891;50.006;21.964;2023-10-19T15:39:27;9.85;;;7.72;;
56999;SDS011;42891;50.006;21.964;2023-10-19T15:43:27;9.33;;;7.10;;
56999;SDS011;42891;50.006;21.964;2023-10-19T15:47:28;13.82;;;10.15;;
56999;SDS011;42891;50.006;21.964;2023-10-19T15:51:30;10.52;;;7.93;;
56999;SDS011;42891;50.006;21.964;2023-10-19T15:55:30;11.00;;;7.93;;
56999;SDS011;42891;50.006;21.964;2023-10-19T15:59:31;20.45;;;14.73;;
56999;SDS011;42891;50.006;21.964;2023-10-19T16:03:32;18.58;;;12.77;;
56999;SDS011;42891;50.006;21.964;2023-10-19T16:07:32;21.25;;;13.85;;
56999;SDS011;42891;50.006;21.964;2023-10-19T16:11:32;15.75;;;12.27;;
56999;SDS011;42891;50.006;21.964;2023-10-19T16:15:33;11.82;;;8.73;;
56999;SDS011;42891;50.006;21.964;2023-10-19T16:19:33;14.35;;;10.55;;
56999;SDS011;42891;50.006;21.964;2023-10-19T16:23:34;16.50;;;9.63;;
56999;SDS011;42891;50.006;21.964;2023-10-19T16:27:34;19.90;;;10.98;;
56999;SDS011;42891;50.006;21.964;2023-10-19T16:31:34;12.20;;;8.38;;
56999;SDS011;42891;50.006;21.964;2023-10-19T16:35:37;29.85;;;15.32;;
56999;SDS011;42891;50.006;21.964;2023-10-19T16:39:38;15.85;;;10.82;;
56999;SDS011;42891;50.006;21.964;2023-10-19T16:43:38;14.73;;;10.40;;
56999;SDS011;42891;50.006;21.964;2023-10-19T16:47:39;19.42;;;11.90;;
56999;SDS011;42891;50.006;21.964;2023-10-19T16:51:41;34.63;;;19.02;;
56999;SDS011;42891;50.006;21.964;2023-10-19T16:55:43;18.80;;;12.13;;
56999;SDS011;42891;50.006;21.964;2023-10-19T16:59:43;11.25;;;8.18;;
56999;SDS011;42891;50.006;21.964;2023-10-19T17:03:43;10.00;;;7.05;;
56999;SDS011;42891;50.006;21.964;2023-10-19T17:07:44;33.47;;;19.33;;
56999;SDS011;42891;50.006;21.964;2023-10-19T17:11:48;11.60;;;7.55;;
56999;SDS011;42891;50.006;21.964;2023-10-19T17:15:50;11.55;;;8.02;;
56999;SDS011;42891;50.006;21.964;2023-10-19T17:19:51;10.10;;;8.13;;
56999;SDS011;42891;50.006;21.964;2023-10-19T17:23:51;9.43;;;7.07;;
56999;SDS011;42891;50.006;21.964;2023-10-19T17:27:53;9.85;;;7.95;;
56999;SDS011;42891;50.006;21.964;2023-10-19T17:31:53;12.15;;;8.73;;
56999;SDS011;42891;50.006;21.964;2023-10-19T17:35:54;20.45;;;12.65;;
56999;SDS011;42891;50.006;21.964;2023-10-19T17:39:54;14.38;;;9.93;;
56999;SDS011;42891;50.006;21.964;2023-10-19T17:43:55;14.77;;;11.15;;
56999;SDS011;42891;50.006;21.964;2023-10-19T17:47:55;14.00;;;9.70;;
56999;SDS011;42891;50.006;21.964;2023-10-19T17:51:55;14.10;;;9.55;;
56999;SDS011;42891;50.006;21.964;2023-10-19T17:55:56;19.63;;;14.82;;
56999;SDS011;42891;50.006;21.964;2023-10-19T17:59:56;20.02;;;14.70;;
56999;SDS011;42891;50.006;21.964;2023-10-19T18:03:57;16.23;;;12.02;;
56999;SDS011;42891;50.006;21.964;2023-10-19T18:07:57;16.65;;;12.70;;
56999;SDS011;42891;50.006;21.964;2023-10-19T18:11:58;16.92;;;11.32;;
56999;SDS011;42891;50.006;21.964;2023-10-19T18:15:58;14.10;;;10.35;;
56999;SDS011;42891;50.006;21.964;2023-10-19T18:20:03;15.63;;;11.38;;
56999;SDS011;42891;50.006;21.964;2023-10-19T18:24:07;15.70;;;10.73;;
56999;SDS011;42891;50.006;21.964;2023-10-19T18:28:09;16.77;;;11.07;;
56999;SDS011;42891;50.006;21.964;2023-10-19T18:32:10;18.55;;;11.85;;
56999;SDS011;42891;50.006;21.964;2023-10-19T18:36:11;17.38;;;11.75;;
56999;SDS011;42891;50.006;21.964;2023-10-19T18:40:15;20.23;;;13.23;;
56999;SDS011;42891;50.006;21.964;2023-10-19T18:44:18;17.30;;;12.65;;
56999;SDS011;42891;50.006;21.964;2023-10-19T18:48:18;20.60;;;14.85;;
56999;SDS011;42891;50.006;21.964;2023-10-19T18:52:19;22.23;;;14.43;;
56999;SDS011;42891;50.006;21.964;2023-10-19T18:56:20;23.48;;;16.75;;
56999;SDS011;42891;50.006;21.964;2023-10-19T19:00:20;24.02;;;16.50;;
56999;SDS011;42891;50.006;21.964;2023-10-19T19:04:23;22.45;;;16.20;;
56999;SDS011;42891;50.006;21.964;2023-10-19T19:08:28;32.72;;;20.98;;
56999;SDS011;42891;50.006;21.964;2023-10-19T19:12:29;32.08;;;21.20;;
56999;SDS011;42891;50.006;21.964;2023-10-19T19:16:30;22.77;;;15.20;;
56999;SDS011;42891;50.006;21.964;2023-10-19T19:20:30;27.80;;;17.63;;
56999;SDS011;42891;50.006;21.964;2023-10-19T19:24:30;23.25;;;15.45;;
56999;SDS011;42891;50.006;21.964;2023-10-19T19:28:31;23.55;;;16.02;;
56999;SDS011;42891;50.006;21.964;2023-10-19T19:32:38;21.95;;;15.13;;
56999;SDS011;42891;50.006;21.964;2023-10-19T19:36:39;23.08;;;16.00;;
56999;SDS011;42891;50.006;21.964;2023-10-19T19:40:40;23.15;;;15.48;;
56999;SDS011;42891;50.006;21.964;2023-10-19T19:44:40;27.63;;;17.15;;
56999;SDS011;42891;50.006;21.964;2023-10-19T19:48:42;24.17;;;16.65;;
56999;SDS011;42891;50.006;21.964;2023-10-19T19:52:42;27.25;;;17.20;;
56999;SDS011;42891;50.006;21.964;2023-10-19T19:56:42;29.45;;;19.10;;
56999;SDS011;42891;50.006;21.964;2023-10-19T20:00:43;30.05;;;19.15;;
56999;SDS011;42891;50.006;21.964;2023-10-19T20:04:43;29.95;;;19.20;;
56999;SDS011;42891;50.006;21.964;2023-10-19T20:08:44;30.50;;;20.33;;
56999;SDS011;42891;50.006;21.964;2023-10-19T20:12:44;30.35;;;19.48;;
56999;SDS011;42891;50.006;21.964;2023-10-19T20:16:44;30.25;;;18.95;;
56999;SDS011;42891;50.006;21.964;2023-10-19T20:20:45;31.95;;;20.95;;
56999;SDS011;42891;50.006;21.964;2023-10-19T20:24:45;35.55;;;23.15;;
56999;SDS011;42891;50.006;21.964;2023-10-19T20:28:47;32.40;;;21.05;;
56999;SDS011;42891;50.006;21.964;2023-10-19T20:32:48;32.13;;;20.52;;
56999;SDS011;42891;50.006;21.964;2023-10-19T20:36:48;28.65;;;20.13;;
56999;SDS011;42891;50.006;21.964;2023-10-19T20:40:49;31.13;;;19.55;;
56999;SDS011;42891;50.006;21.964;2023-10-19T20:44:52;32.13;;;22.40;;
56999;SDS011;42891;50.006;21.964;2023-10-19T20:48:53;29.95;;;20.67;;
56999;SDS011;42891;50.006;21.964;2023-10-19T20:52:55;31.75;;;20.63;;
56999;SDS011;42891;50.006;21.964;2023-10-19T20:56:58;26.38;;;18.42;;
56999;SDS011;42891;50.006;21.964;2023-10-19T21:01:03;32.83;;;22.92;;
56999;SDS011;42891;50.006;21.964;2023-10-19T21:05:06;30.40;;;21.55;;
56999;SDS011;42891;50.006;21.964;2023-10-19T21:09:07;32.30;;;21.63;;
56999;SDS011;42891;50.006;21.964;2023-10-19T21:13:10;31.08;;;20.83;;
56999;SDS011;42891;50.006;21.964;2023-10-19T21:17:11;34.42;;;23.27;;
56999;SDS011;42891;50.006;21.964;2023-10-19T21:21:11;31.10;;;20.60;;
56999;SDS011;42891;50.006;21.964;2023-10-19T21:25:14;32.08;;;21.77;;
56999;SDS011;42891;50.006;21.964;2023-10-19T21:29:16;33.67;;;22.92;;
56999;SDS011;42891;50.006;21.964;2023-10-19T21:33:16;30.52;;;21.38;;
56999;SDS011;42891;50.006;21.964;2023-10-19T21:37:17;28.23;;;19.45;;
56999;SDS011;42891;50.006;21.964;2023-10-19T21:41:18;25.63;;;19.08;;
56999;SDS011;42891;50.006;21.964;2023-10-19T21:45:19;24.70;;;18.75;;
56999;SDS011;42891;50.006;21.964;2023-10-19T21:49:19;28.52;;;20.17;;
56999;SDS011;42891;50.006;21.964;2023-10-19T21:53:19;24.37;;;17.17;;
56999;SDS011;42891;50.006;21.964;2023-10-19T21:57:20;23.60;;;15.77;;
56999;SDS011;42891;50.006;21.964;2023-10-19T22:01:20;26.55;;;17.42;;
56999;SDS011;42891;50.006;21.964;2023-10-19T22:05:28;27.00;;;18.77;;
56999;SDS011;42891;50.006;21.964;2023-10-19T22:09:28;26.85;;;18.25;;
56999;SDS011;42891;50.006;21.964;2023-10-19T22:13:30;19.42;;;14.50;;
56999;SDS011;42891;50.006;21.964;2023-10-19T22:17:31;19.10;;;13.38;;
56999;SDS011;42891;50.006;21.964;2023-10-19T22:21:31;17.35;;;13.25;;
56999;SDS011;42891;50.006;21.964;2023-10-19T22:25:35;17.02;;;11.93;;
56999;SDS011;42891;50.006;21.964;2023-10-19T22:29:36;16.83;;;12.55;;
56999;SDS011;42891;50.006;21.964;2023-10-19T22:33:36;17.80;;;12.07;;
56999;SDS011;42891;50.006;21.964;2023-10-19T22:37:37;15.55;;;11.40;;
56999;SDS011;42891;50.006;21.964;2023-10-19T22:41:37;15.25;;;10.38;;
56999;SDS011;42891;50.006;21.964;2023-10-19T22:45:38;12.48;;;10.02;;
56999;SDS011;42891;50.006;21.964;2023-10-19T22:49:38;12.27;;;9.43;;
56999;SDS011;42891;50.006;21.964;2023-10-19T22:53:39;11.82;;;9.00;;
56999;SDS011;42891;50.006;21.964;2023-10-19T22:57:41;12.63;;;9.23;;
56999;SDS011;42891;50.006;21.964;2023-10-19T23:01:42;12.93;;;9.68;;
56999;SDS011;42891;50.006;21.964;2023-10-19T23:05:42;12.18;;;9.73;;
56999;SDS011;42891;50.006;21.964;2023-10-19T23:09:44;12.90;;;8.50;;
56999;SDS011;42891;50.006;21.964;2023-10-19T23:13:44;11.25;;;8.65;;
56999;SDS011;42891;50.006;21.964;2023-10-19T23:17:47;10.60;;;8.85;;
56999;SDS011;42891;50.006;21.964;2023-10-19T23:21:50;11.32;;;8.80;;
56999;SDS011;42891;50.006;21.964;2023-10-19T23:25:51;10.20;;;8.48;;
56999;SDS011;42891;50.006;21.964;2023-10-19T23:30:00;11.63;;;8.70;;
56999;SDS011;42891;50.006;21.964;2023-10-19T23:34:00;12.73;;;9.27;;